Time;durP1;ratioP1;P1;durP2;ratioP2;P2;SDS_P1;SDS_P2;PMS_P1;PMS_P2;Temp;Humidity;BMP_temperature;BMP_pressure;BME280_temperature;BME280_humidity;BME280_pressure;Samples;Min_cycle;Max_cycle;Signal;HPM_P1;HPM_P2
2022/03/25 00:00:10;;;;;;;53.40;26.25;;;;;;;7.39;58.07;101122.41;4945192;29;20027;-84
2022/03/25 00:02:37;;;;;;;48.72;25.92;;;;;;;7.39;57.61;101119.72;4941809;29;20027;-84
2022/03/25 00:05:04;;;;;;;51.22;26.25;;;;;;;7.32;58.39;101123.25;4946295;29;20321;-85
2022/03/25 00:07:29;;;;;;;51.75;25.70;;;;;;;7.32;57.85;101120.53;4943909;29;20023;-83
2022/03/25 00:09:55;;;;;;;49.92;27.73;;;;;;;7.31;58.06;101116.19;4944531;29;20383;-85
2022/03/25 00:12:20;;;;;;;46.85;24.40;;;;;;;7.29;57.67;101118.25;4942565;29;20467;-85
2022/03/25 00:14:45;;;;;;;51.78;26.80;;;;;;;7.30;57.07;101119.91;4942435;29;20051;-84
2022/03/25 00:17:10;;;;;;;59.17;29.58;;;;;;;7.26;56.89;101112.44;4946532;29;20110;-85
2022/03/25 00:19:36;;;;;;;50.95;25.35;;;;;;;7.22;57.65;101109.31;4944848;29;20031;-84
2022/03/25 00:22:01;;;;;;;46.63;24.80;;;;;;;7.20;57.70;101114.09;4944749;29;20471;-84
2022/03/25 00:24:26;;;;;;;46.63;24.67;;;;;;;7.13;57.67;101119.53;4944733;29;20146;-85
2022/03/25 00:26:52;;;;;;;51.47;28.23;;;;;;;7.05;57.47;101112.44;4946134;29;20584;-85
2022/03/25 00:29:17;;;;;;;44.03;25.15;;;;;;;6.92;57.93;101117.81;4944578;29;20336;-85
2022/03/25 00:31:42;;;;;;;64.95;26.40;;;;;;;6.87;57.99;101110.31;4941977;29;20118;-85
2022/03/25 00:34:09;;;;;;;53.17;26.27;;;;;;;6.95;57.63;101115.56;4945448;29;20488;-84
2022/03/25 00:36:34;;;;;;;44.90;25.20;;;;;;;7.07;56.81;101115.78;4944936;29;20253;-84
2022/03/25 00:38:59;;;;;;;44.15;26.13;;;;;;;6.98;58.01;101112.41;4946081;29;20027;-85
2022/03/25 00:41:24;;;;;;;42.90;25.83;;;;;;;6.89;58.22;101113.66;4942283;29;20047;-86
2022/03/25 00:43:50;;;;;;;48.87;26.07;;;;;;;6.89;58.72;101114.47;4945996;29;20093;-84
2022/03/25 00:46:15;;;;;;;47.13;24.95;;;;;;;6.96;57.64;101119.06;4944106;29;20261;-85
2022/03/25 00:48:42;;;;;;;43.35;25.90;;;;;;;6.84;58.31;101117.00;4946600;29;20105;-85
2022/03/25 00:51:08;;;;;;;58.22;29.02;;;;;;;6.84;58.17;101108.84;4944971;29;20544;-85
2022/03/25 00:53:34;;;;;;;46.78;25.00;;;;;;;6.85;57.85;101112.41;4944330;28;20070;-85
2022/03/25 00:56:03;;;;;;;45.65;25.88;;;;;;;6.82;57.13;101107.38;4945078;29;20407;-85
2022/03/25 00:58:29;;;;;;;47.53;27.60;;;;;;;6.77;58.58;101113.44;4943295;29;20042;-85
2022/03/25 01:00:55;;;;;;;46.63;25.08;;;;;;;6.82;58.75;101104.69;4927108;29;20027;-86
2022/03/25 01:03:21;;;;;;;43.25;23.35;;;;;;;6.80;59.34;101110.31;4941648;29;20024;-85
2022/03/25 01:05:46;;;;;;;51.72;27.30;;;;;;;6.87;59.17;101110.31;4946292;29;20066;-85
2022/03/25 01:08:12;;;;;;;51.55;27.83;;;;;;;6.81;59.52;101103.88;4944419;29;20123;-85
2022/03/25 01:10:37;;;;;;;47.67;28.30;;;;;;;6.75;59.39;101105.50;4942737;29;20034;-85
2022/03/25 01:13:04;;;;;;;49.58;24.98;;;;;;;6.76;59.98;101109.06;4943622;29;20315;-84
2022/03/25 01:15:30;;;;;;;56.22;30.30;;;;;;;6.87;58.77;101111.16;4944294;29;20049;-85
2022/03/25 01:17:55;;;;;;;46.63;24.48;;;;;;;6.73;59.82;101104.88;4945054;29;20019;-85
2022/03/25 01:20:21;;;;;;;55.95;30.13;;;;;;;6.87;59.30;101111.16;4940790;29;20138;-85
2022/03/25 01:22:46;;;;;;;47.97;25.15;;;;;;;6.87;58.88;101113.03;4945583;29;20564;-85
2022/03/25 01:25:12;;;;;;;54.72;27.05;;;;;;;6.91;59.09;101113.47;4943198;29;20186;-85
2022/03/25 01:27:37;;;;;;;48.37;28.90;;;;;;;7.00;59.07;101104.91;4925600;29;20023;-85
2022/03/25 01:30:04;;;;;;;54.03;28.42;;;;;;;7.08;58.62;101111.16;4943069;29;20265;-83
2022/03/25 01:32:30;;;;;;;53.60;25.95;;;;;;;7.09;59.13;101108.25;4942597;29;20019;-84
2022/03/25 01:34:55;;;;;;;58.60;29.60;;;;;;;6.92;59.13;101107.81;4945305;29;20038;-85
2022/03/25 01:37:23;;;;;;;48.85;24.13;;;;;;;6.80;59.15;101104.88;4943614;29;20453;-84
2022/03/25 01:39:48;;;;;;;50.92;27.60;;;;;;;6.93;58.30;101103.25;4945359;29;20031;-84
2022/03/25 01:42:13;;;;;;;49.58;29.35;;;;;;;6.72;58.76;101107.78;4940120;29;20431;-85
2022/03/25 01:44:39;;;;;;;53.70;29.45;;;;;;;6.61;59.45;101104.63;4945347;29;20114;-85
2022/03/25 01:47:08;;;;;;;50.72;25.63;;;;;;;6.61;59.42;101099.22;4943569;29;20383;-84
2022/03/25 01:49:47;;;;;;;51.97;27.92;;;;;;;6.56;59.31;101099.00;4947598;29;20051;-82
2022/03/25 01:52:12;;;;;;;55.83;26.52;;;;;;;6.50;59.79;101099.84;4943246;29;20094;-84
2022/03/25 01:54:38;;;;;;;53.00;29.25;;;;;;;6.44;60.24;101103.34;4937517;29;20045;-85
2022/03/25 01:57:06;;;;;;;49.63;27.60;;;;;;;6.38;60.48;101105.84;4931426;29;20031;-84
2022/03/25 01:59:33;;;;;;;56.20;28.20;;;;;;;6.37;59.81;101101.47;4947704;29;20659;-83
2022/03/25 02:02:01;;;;;;;51.80;31.45;;;;;;;6.30;60.23;101106.03;4942405;29;20031;-83
2022/03/25 02:04:27;;;;;;;51.05;25.85;;;;;;;6.35;59.98;101105.41;4944493;28;20074;-84
2022/03/25 02:06:53;;;;;;;55.63;25.65;;;;;;;6.10;60.32;101104.09;4944770;29;20066;-83
2022/03/25 02:09:18;;;;;;;50.20;30.15;;;;;;;6.22;60.37;101106.22;4945947;29;20486;-83
2022/03/25 02:11:44;;;;;;;53.28;26.10;;;;;;;6.19;60.39;101108.28;4943843;29;20048;-84
2022/03/25 02:14:11;;;;;;;53.17;28.48;;;;;;;6.27;60.33;101101.84;4945935;29;20024;-84
2022/03/25 02:16:54;;;;;;;58.70;29.65;;;;;;;6.24;60.38;101102.25;4942727;29;20031;-84
2022/03/25 02:19:19;;;;;;;50.72;30.90;;;;;;;5.95;61.93;101105.03;4920624;29;20034;-83
2022/03/25 02:21:47;;;;;;;51.10;27.65;;;;;;;6.12;61.16;101103.88;4933880;29;20039;-84
2022/03/25 02:24:13;;;;;;;47.25;27.13;;;;;;;6.12;61.52;101104.69;4943882;29;20704;-83
2022/03/25 02:26:39;;;;;;;47.97;25.63;;;;;;;5.92;61.77;101112.72;4944987;29;20027;-81
2022/03/25 02:29:07;;;;;;;50.30;28.20;;;;;;;5.82;61.36;101102.22;4944011;29;20037;-84
2022/03/25 02:31:33;;;;;;;60.70;30.40;;;;;;;6.02;61.13;101109.63;4921348;29;20138;-83
2022/03/25 02:34:03;;;;;;;48.45;27.65;;;;;;;5.96;61.89;101101.28;4943243;29;20117;-84
2022/03/25 02:36:29;;;;;;;52.08;29.38;;;;;;;5.91;61.58;101106.47;4944026;29;20098;-84
2022/03/25 02:38:55;;;;;;;54.08;29.00;;;;;;;5.84;62.37;101108.28;4944262;29;20247;-84
2022/03/25 02:41:20;;;;;;;49.50;28.05;;;;;;;5.82;61.18;101103.06;4934074;29;20067;-84
2022/03/25 02:43:45;;;;;;;48.80;26.13;;;;;;;5.71;61.48;101101.78;4943087;29;20034;-84
2022/03/25 02:49:14;;;;;;;45.72;28.17;;;;;;;5.67;62.34;101110.50;4926149;29;20570;-84
2022/03/25 02:51:40;;;;;;;50.75;26.80;;;;;;;5.71;61.81;101109.06;4942056;29;20023;-85
2022/03/25 02:54:05;;;;;;;58.10;28.85;;;;;;;5.68;61.84;101113.00;4948624;29;20510;-84
2022/03/25 02:56:31;;;;;;;52.65;28.40;;;;;;;5.68;62.39;101115.69;4948122;29;20050;-83
2022/03/25 02:58:56;;;;;;;53.17;26.33;;;;;;;6.34;60.48;101110.00;4948251;29;20085;-85
2022/03/25 03:01:22;;;;;;;65.93;28.80;;;;;;;6.37;59.45;101111.44;4936449;29;20048;-84
2022/03/25 03:03:47;;;;;;;41.88;23.83;;;;;;;6.02;61.36;101109.63;4927901;29;20391;-85
2022/03/25 03:06:26;;;;;;;45.00;24.23;;;;;;;6.15;61.00;101112.44;4929114;29;20043;-85
2022/03/25 03:08:52;;;;;;;50.40;25.37;;;;;;;6.11;60.72;101116.56;4928937;29;20031;-85
2022/03/25 03:11:17;;;;;;;51.63;27.33;;;;;;;6.03;61.19;101112.13;4927421;29;20270;-83
2022/03/25 03:13:44;;;;;;;43.30;25.75;;;;;;;5.83;61.33;101115.59;4929076;29;20074;-83
2022/03/25 03:16:10;;;;;;;45.13;24.27;;;;;;;5.72;61.18;101124.25;4927979;29;20074;-85
2022/03/25 03:18:35;;;;;;;44.95;25.77;;;;;;;5.50;62.72;101124.31;4928441;29;20507;-85
2022/03/25 03:21:01;;;;;;;53.53;29.98;;;;;;;5.72;62.38;101121.53;4927367;29;20130;-85
2022/03/25 03:23:26;;;;;;;50.90;27.02;;;;;;;5.59;61.88;101117.72;4928221;29;20055;-85
2022/03/25 03:25:51;;;;;;;49.90;26.63;;;;;;;5.66;61.94;101115.06;4928160;29;20077;-85
2022/03/25 03:28:17;;;;;;;49.08;27.30;;;;;;;5.54;61.82;101120.19;4928296;29;20517;-84
2022/03/25 03:30:42;;;;;;;53.60;26.77;;;;;;;5.54;62.35;101113.94;4925943;29;20028;-85
2022/03/25 03:33:08;;;;;;;50.25;26.27;;;;;;;5.47;62.30;101117.44;4929109;29;20262;-85
2022/03/25 03:35:34;;;;;;;52.15;28.25;;;;;;;5.45;62.90;101115.97;4929668;29;20301;-86
2022/03/25 03:37:59;;;;;;;48.88;28.10;;;;;;;5.44;62.45;101120.53;4928768;29;20023;-85
2022/03/25 03:40:25;;;;;;;41.70;24.98;;;;;;;5.48;62.52;101116.41;4929860;29;20030;-84
2022/03/25 03:42:51;;;;;;;53.80;28.63;;;;;;;5.48;62.32;101120.97;4928752;29;20034;-85
2022/03/25 03:45:16;;;;;;;53.13;27.27;;;;;;;5.51;63.32;101117.88;4929676;29;20031;-85
2022/03/25 03:47:42;;;;;;;49.78;29.10;;;;;;;5.57;62.83;101113.56;4927952;29;21045;-84
2022/03/25 03:50:11;;;;;;;51.00;27.00;;;;;;;5.53;62.55;101112.28;4927377;29;20477;-84
2022/03/25 03:52:37;;;;;;;48.25;28.33;;;;;;;5.52;62.74;101110.59;4909377;29;20031;-85
2022/03/25 03:55:04;;;;;;;50.42;26.58;;;;;;;5.48;62.24;101111.00;4909471;29;20028;-85
2022/03/25 03:57:30;;;;;;;49.47;23.80;;;;;;;5.71;62.23;101112.59;4909858;29;20032;-85
2022/03/25 03:59:55;;;;;;;57.67;29.00;;;;;;;5.64;62.14;101114.41;4909495;29;20088;-85
2022/03/25 04:02:21;;;;;;;47.03;26.13;;;;;;;5.65;62.79;101118.81;4910419;29;20032;-85
2022/03/25 04:04:47;;;;;;;48.75;24.13;;;;;;;5.68;61.72;101115.69;4908949;29;20028;-85
2022/03/25 04:10:35;;;;;;;61.33;29.30;;;;;;;6.47;60.41;101127.34;4908377;29;20050;-85
2022/03/25 04:13:00;;;;;;;52.95;27.95;;;;;;;6.26;61.17;101129.16;4908274;29;20143;-85
2022/03/25 04:15:27;;;;;;;51.78;28.73;;;;;;;6.15;62.00;101131.38;4910411;29;20713;-86
2022/03/25 04:17:52;;;;;;;50.70;29.02;;;;;;;5.79;62.44;101133.25;4908971;29;20587;-85
2022/03/25 04:20:18;;;;;;;53.28;28.13;;;;;;;5.86;62.11;101127.88;4911758;29;20103;-83
2022/03/25 04:22:44;;;;;;;52.67;30.98;;;;;;;5.53;62.91;101133.91;4927989;29;20032;-85
2022/03/25 04:25:09;;;;;;;51.80;27.45;;;;;;;5.25;64.09;101136.41;4928687;29;20052;-85
2022/03/25 04:27:48;;;;;;;56.80;28.73;;;;;;;5.13;64.29;101132.56;4929384;29;20030;-85
2022/03/25 04:30:18;;;;;;;57.97;27.83;;;;;;;5.20;64.64;101133.47;4910663;29;20498;-85
2022/03/25 04:32:44;;;;;;;51.30;27.42;;;;;;;5.25;63.68;101140.97;4912635;29;20056;-86
2022/03/25 04:35:10;;;;;;;54.05;30.52;;;;;;;5.07;64.46;101141.44;4912225;29;20024;-85
2022/03/25 04:37:35;;;;;;;59.00;31.55;;;;;;;5.11;64.02;101142.72;4913209;29;20487;-85
2022/03/25 04:40:01;;;;;;;50.17;30.20;;;;;;;5.16;64.52;101134.03;4911983;29;20074;-85
2022/03/25 04:42:26;;;;;;;58.95;32.50;;;;;;;5.30;63.90;101146.66;4895715;29;20357;-83
2022/03/25 04:44:53;;;;;;;54.50;28.27;;;;;;;5.19;63.57;101136.34;4895892;29;20143;-85
2022/03/25 04:47:18;;;;;;;56.65;32.45;;;;;;;5.30;63.17;101132.28;4910155;29;21192;-85
2022/03/25 04:52:51;;;;;;;57.53;28.73;;;;;;;5.29;64.17;101149.56;4884493;29;20051;-85
2022/03/25 04:55:17;;;;;;;54.75;30.42;;;;;;;5.59;63.05;101138.53;4893662;29;20032;-84
2022/03/25 04:57:42;;;;;;;57.38;30.73;;;;;;;5.28;63.58;101137.06;4894005;29;20039;-84
2022/03/25 05:00:09;;;;;;;55.90;31.25;;;;;;;5.31;63.92;101136.69;4894454;29;20317;-86
2022/03/25 05:02:35;;;;;;;50.22;29.90;;;;;;;5.28;63.41;101137.06;4911587;29;20880;-84
2022/03/25 05:05:00;;;;;;;54.60;28.08;;;;;;;5.07;63.67;101142.28;4911404;29;20040;-85
2022/03/25 05:07:26;;;;;;;51.38;26.70;;;;;;;5.25;64.10;101139.13;4912839;29;20531;-84
2022/03/25 05:09:52;;;;;;;51.20;26.05;;;;;;;5.46;64.13;101139.28;4913463;29;20175;-84
2022/03/25 05:12:18;;;;;;;51.20;28.23;;;;;;;5.49;62.41;101137.00;4930909;29;20114;-83
2022/03/25 05:14:43;;;;;;;49.75;27.63;;;;;;;5.69;63.16;101136.31;4931048;29;20152;-85
2022/03/25 05:17:09;;;;;;;53.28;27.42;;;;;;;5.67;62.24;101146.50;4926084;29;20027;-85
2022/03/25 05:19:34;;;;;;;51.70;27.38;;;;;;;5.53;62.55;101145.59;4930005;29;20031;-84
2022/03/25 05:22:00;;;;;;;53.78;25.88;;;;;;;5.37;63.00;101152.94;4912974;29;20441;-84
2022/03/25 05:24:26;;;;;;;55.28;29.05;;;;;;;5.08;64.53;101149.38;4923023;29;20066;-85
2022/03/25 05:26:52;;;;;;;60.42;28.42;;;;;;;5.02;64.79;101158.25;4930102;29;20382;-86
2022/03/25 05:29:18;;;;;;;53.20;26.33;;;;;;;4.94;64.46;101156.53;4936142;29;20118;-85
2022/03/25 05:31:43;;;;;;;55.28;28.95;;;;;;;4.88;65.42;101160.81;4934133;29;20119;-84
2022/03/25 05:34:09;;;;;;;48.05;27.42;;;;;;;4.93;65.06;101146.72;4942271;29;20031;-84
2022/03/25 05:36:34;;;;;;;49.38;27.80;;;;;;;5.01;65.15;101149.31;4950163;29;20081;-84
2022/03/25 05:39:01;;;;;;;50.70;27.83;;;;;;;4.91;65.36;101154.19;4949479;29;20123;-84
2022/03/25 05:41:27;;;;;;;53.00;28.35;;;;;;;4.86;65.39;101164.75;4937416;28;20031;-84
2022/03/25 05:43:54;;;;;;;58.42;29.23;;;;;;;4.83;66.51;101155.16;4946766;29;20556;-84
2022/03/25 05:46:20;;;;;;;53.20;27.02;;;;;;;4.98;65.33;101159.69;4949578;29;20135;-85
2022/03/25 05:48:46;;;;;;;54.30;30.70;;;;;;;4.88;65.95;101160.81;4948314;29;20041;-83
2022/03/25 05:51:11;;;;;;;53.35;27.98;;;;;;;5.09;65.47;101161.00;4942510;29;20050;-85
2022/03/25 05:53:37;;;;;;;55.10;28.90;;;;;;;4.98;65.37;101154.28;4948948;29;20470;-84
2022/03/25 05:56:05;;;;;;;51.85;29.85;;;;;;;4.89;66.25;101159.81;4933361;29;20035;-83
2022/03/25 05:58:35;;;;;;;48.42;24.63;;;;;;;4.97;65.89;101163.41;4937172;29;20398;-86
2022/03/25 06:01:01;;;;;;;54.92;28.40;;;;;;;5.02;66.13;101161.78;4930888;29;20311;-85
2022/03/25 06:03:27;;;;;;;48.33;25.50;;;;;;;5.21;66.37;101164.88;4940091;29;20035;-85
2022/03/25 06:05:53;;;;;;;59.35;29.08;;;;;;;5.22;66.20;101163.84;4938068;29;20085;-83
2022/03/25 06:08:18;;;;;;;56.60;27.20;;;;;;;5.44;65.83;101165.69;4940362;29;20024;-84
2022/03/25 06:14:05;;;;;;;44.55;25.92;;;;;;;5.64;64.49;101155.00;4930890;29;20678;-85
2022/03/25 06:16:31;;;;;;;51.55;26.73;;;;;;;5.56;65.66;101164.13;4928154;29;20028;-83
2022/03/25 06:18:57;;;;;;;43.97;26.13;;;;;;;5.68;65.77;101159.00;4928593;29;20027;-82
2022/03/25 06:21:22;;;;;;;52.80;25.98;;;;;;;5.88;65.45;101163.69;4931782;29;20082;-84
2022/03/25 06:23:47;;;;;;;47.90;26.95;;;;;;;6.03;65.02;101165.44;4929569;29;20032;-83
2022/03/25 06:26:13;;;;;;;47.33;25.30;;;;;;;5.99;64.61;101164.16;4911054;29;20107;-83
2022/03/25 06:28:38;;;;;;;52.33;27.10;;;;;;;6.00;65.42;101171.28;4925361;29;20023;-84
2022/03/25 06:31:04;;;;;;;47.75;25.70;;;;;;;6.02;65.23;101169.22;4926015;29;20387;-83
2022/03/25 06:33:29;;;;;;;50.90;25.67;;;;;;;6.15;65.22;101171.16;4925189;29;20100;-85
2022/03/25 06:35:54;;;;;;;52.58;27.67;;;;;;;6.28;64.97;101179.38;4916429;29;20034;-84
2022/03/25 06:38:20;;;;;;;58.00;28.65;;;;;;;6.42;64.78;101171.28;4906401;29;20236;-84
2022/03/25 06:40:45;;;;;;;55.28;29.17;;;;;;;6.45;65.31;101183.63;4903105;29;20036;-85
2022/03/25 06:43:10;;;;;;;47.03;23.03;;;;;;;6.49;64.96;101184.88;4904889;29;20107;-83
2022/03/25 06:45:36;;;;;;;44.85;27.33;;;;;;;6.44;65.25;101179.22;4905212;29;20623;-83
2022/03/25 06:48:01;;;;;;;52.45;28.52;;;;;;;6.72;63.97;101178.28;4904510;29;20115;-83
2022/03/25 06:50:27;;;;;;;48.75;26.38;;;;;;;7.23;62.13;101182.34;4906490;29;20090;-86
2022/03/25 06:53:09;;;;;;;49.22;27.77;;;;;;;7.27;60.94;101180.03;4903635;29;20028;-83
2022/03/25 06:55:36;;;;;;;49.72;26.52;;;;;;;7.64;60.21;101176.91;4905243;29;20476;-83
2022/03/25 06:58:02;;;;;;;51.10;27.95;;;;;;;7.52;61.62;101178.59;4921890;29;20427;-84
2022/03/25 07:00:28;;;;;;;55.25;24.20;;;;;;;7.61;59.36;101184.63;4919191;29;20120;-84
2022/03/25 07:02:54;;;;;;;45.42;27.85;;;;;;;7.71;58.58;101185.03;4904416;29;20118;-85
2022/03/25 07:05:19;;;;;;;44.70;23.23;;;;;;;7.86;57.52;101186.69;4904184;29;20032;-84
2022/03/25 07:07:45;;;;;;;46.65;22.08;;;;;;;7.92;57.25;101191.28;4925141;29;20442;-86
2022/03/25 07:10:12;;;;;;;44.97;23.10;;;;;;;8.05;56.62;101190.41;4913206;29;20028;-83
2022/03/25 07:12:38;;;;;;;49.92;26.65;;;;;;;8.14;56.42;101186.41;4905218;29;20416;-84
2022/03/25 07:15:05;;;;;;;47.50;25.70;;;;;;;8.25;55.97;101189.53;4904109;29;20285;-85
2022/03/25 07:17:30;;;;;;;46.20;25.88;;;;;;;8.06;57.01;101195.63;4905087;29;20108;-83
2022/03/25 07:19:56;;;;;;;44.85;24.88;;;;;;;8.28;56.18;101194.50;4908092;29;20502;-86
2022/03/25 07:22:21;;;;;;;50.42;23.10;;;;;;;8.27;55.87;101193.69;4914048;29;20032;-88
2022/03/25 07:24:47;;;;;;;47.35;26.35;;;;;;;8.43;57.04;101194.25;4921110;29;20039;-85
2022/03/25 07:27:12;;;;;;;46.28;26.08;;;;;;;8.40;56.24;101202.84;4932442;29;20027;-88
2022/03/25 07:29:37;;;;;;;49.33;23.83;;;;;;;8.43;56.24;101207.00;4931324;29;20078;-85
2022/03/25 07:32:04;;;;;;;48.65;26.20;;;;;;;8.37;56.15;101206.84;4924457;29;20028;-85
2022/03/25 07:34:29;;;;;;;50.53;25.63;;;;;;;8.43;55.88;101212.44;4928023;29;20040;-84
2022/03/25 07:36:54;;;;;;;53.60;25.88;;;;;;;8.41;55.97;101210.78;4934674;29;20293;-84
2022/03/25 07:39:19;;;;;;;49.03;24.02;;;;;;;8.52;56.35;101216.63;4936347;29;20494;-85
2022/03/25 07:41:45;;;;;;;44.03;23.27;;;;;;;8.49;55.36;101220.59;4922041;29;20031;-84
2022/03/25 07:44:10;;;;;;;46.75;23.98;;;;;;;8.58;55.10;101221.22;4922864;29;20079;-86
2022/03/25 07:46:35;;;;;;;48.03;24.70;;;;;;;8.55;55.64;101220.75;4923054;29;20092;-85
2022/03/25 07:49:01;;;;;;;46.05;24.00;;;;;;;8.64;55.20;101231.19;4921907;29;20811;-85
2022/03/25 07:51:26;;;;;;;43.25;25.25;;;;;;;8.65;55.02;101232.03;4922987;29;20087;-83
2022/03/25 07:53:51;;;;;;;49.97;24.48;;;;;;;8.59;55.23;101235.63;4922042;29;20020;-84
2022/03/25 07:56:17;;;;;;;50.35;27.17;;;;;;;8.55;55.49;101231.63;4923233;29;20509;-85
2022/03/25 07:58:43;;;;;;;49.80;26.10;;;;;;;8.56;55.27;101236.88;4922392;29;20059;-84
2022/03/25 08:01:08;;;;;;;44.78;23.80;;;;;;;8.61;55.33;101244.41;4922601;29;20040;-85
2022/03/25 08:03:33;;;;;;;48.53;25.45;;;;;;;8.60;55.05;101234.59;4924604;29;20435;-85
2022/03/25 08:05:59;;;;;;;47.20;23.63;;;;;;;8.63;55.00;101236.88;4940715;29;20066;-85
2022/03/25 08:08:24;;;;;;;46.70;23.30;;;;;;;8.78;54.95;101252.06;4927600;29;20270;-85
2022/03/25 08:10:55;;;;;;;43.60;22.88;;;;;;;8.68;55.13;101247.09;4927143;29;20270;-84
2022/03/25 08:13:21;;;;;;;42.47;23.42;;;;;;;8.72;55.16;101249.19;4927094;29;20148;-85
2022/03/25 08:15:47;;;;;;;41.35;23.38;;;;;;;8.72;54.81;101249.19;4926285;29;20043;-85
2022/03/25 08:18:16;;;;;;;47.75;25.40;;;;;;;8.90;54.64;101255.78;4926871;29;20042;-86
2022/03/25 08:20:45;;;;;;;49.03;26.13;;;;;;;8.85;54.85;101247.44;4926579;29;20099;-84
2022/03/25 08:27:48;;;;;;;46.45;23.15;;;;;;;8.86;54.84;101260.84;4926106;29;20044;-84
2022/03/25 08:28:43;;;;;;;50.30;24.70;;;;;;;9.02;55.36;101261.38;4926793;29;20110;-81
2022/03/25 08:31:09;;;;;;;41.85;23.40;;;;;;;9.05;56.07;101260.94;4925652;29;20035;-81
2022/03/25 08:33:34;;;;;;;40.78;25.65;;;;;;;9.09;55.58;101264.06;4909545;29;20118;-82
2022/03/25 08:35:59;;;;;;;42.57;22.67;;;;;;;9.19;55.26;101269.84;4926500;29;20031;-83
2022/03/25 08:38:24;;;;;;;42.05;24.35;;;;;;;9.20;55.13;101265.25;4926796;29;20266;-83
2022/03/25 08:43:34;;;;;;;47.78;26.35;;;;;;;9.26;55.47;101279.84;4924889;29;20341;-81
2022/03/25 08:46:00;;;;;;;50.42;25.90;;;;;;;9.38;57.07;101272.66;4946181;29;20035;-82
2022/03/25 08:48:25;;;;;;;49.17;26.45;;;;;;;9.65;55.83;101277.94;4948986;29;20559;-82
2022/03/25 08:50:51;;;;;;;65.78;32.85;;;;;;;9.78;55.21;101284.34;4942095;29;20023;-82
2022/03/25 08:53:17;;;;;;;51.85;27.15;;;;;;;9.98;54.82;101280.59;4926545;29;20115;-82
2022/03/25 08:55:42;;;;;;;65.18;27.90;;;;;;;9.97;54.98;101278.91;4926999;29;20024;-82
2022/03/25 08:58:07;;;;;;;54.22;26.30;;;;;;;10.03;54.81;101278.03;4924933;29;20032;-81
2022/03/25 09:00:33;;;;;;;48.77;25.20;;;;;;;10.00;55.57;101284.78;4928530;29;20039;-84
2022/03/25 09:02:58;;;;;;;50.97;28.52;;;;;;;10.21;54.58;101284.59;4929557;29;21144;-83
2022/03/25 09:05:24;;;;;;;52.40;25.17;;;;;;;10.23;54.75;101279.75;4928589;29;20602;-80
2022/03/25 09:07:49;;;;;;;51.45;25.92;;;;;;;10.33;53.99;101277.31;4911973;29;20055;-83
2022/03/25 09:10:14;;;;;;;54.28;26.50;;;;;;;10.51;53.69;101287.41;4927324;29;20802;-82
2022/03/25 09:12:41;;;;;;;49.65;26.05;;;;;;;10.49;53.60;101283.28;4925953;29;20039;-82
2022/03/25 09:15:07;;;;;;;57.92;24.98;;;;;;;10.62;53.14;101280.38;4924291;29;20024;-83
2022/03/25 09:17:34;;;;;;;46.00;26.10;;;;;;;10.62;53.49;101285.00;4925394;29;20503;-84
2022/03/25 09:19:59;;;;;;;63.38;26.20;;;;;;;10.69;52.73;101293.13;4925035;29;20027;-82
2022/03/25 09:22:24;;;;;;;47.63;25.00;;;;;;;10.66;53.45;101296.31;4926326;29;20028;-84
2022/03/25 09:24:49;;;;;;;42.28;23.73;;;;;;;10.75;53.10;101284.03;4925475;29;20341;-83
2022/03/25 09:27:15;;;;;;;57.83;26.13;;;;;;;10.76;53.19;101288.41;4925228;29;20115;-84
2022/03/25 09:29:41;;;;;;;54.83;26.05;;;;;;;10.90;52.69;101280.06;4925902;29;20061;-84
2022/03/25 09:32:06;;;;;;;53.60;24.63;;;;;;;10.95;52.40;101285.66;4931866;29;20027;-83
2022/03/25 09:40:40;;;;;;;45.42;23.02;;;;;;;10.94;52.87;101281.28;4923513;29;20189;-82
2022/03/25 09:43:06;;;;;;;48.42;23.02;;;;;;;10.98;52.53;101282.47;4925017;29;20059;-85
2022/03/25 09:45:33;;;;;;;45.58;23.77;;;;;;;11.23;50.70;101289.69;4924980;29;20063;-85
2022/03/25 09:47:59;;;;;;;41.83;22.17;;;;;;;11.27;51.07;101290.06;4925751;29;20027;-83
2022/03/25 09:50:27;;;;;;;38.10;18.92;;;;;;;11.52;48.88;101289.06;4924092;29;20479;-84
2022/03/25 09:52:52;;;;;;;38.28;18.13;;;;;;;11.61;49.61;101289.56;4924953;29;20028;-83
2022/03/25 09:55:18;;;;;;;34.03;17.23;;;;;;;11.47;48.20;101284.28;4929171;29;20447;-83
2022/03/25 09:57:44;;;;;;;39.72;20.80;;;;;;;11.71;47.78;101284.38;4928462;29;20026;-83
2022/03/25 10:00:16;;;;;;;40.90;19.45;;;;;;;11.78;48.17;101292.44;4925358;29;20581;-85
2022/03/25 10:02:41;;;;;;;36.38;19.25;;;;;;;11.86;47.83;101288.50;4924589;29;20019;-84
2022/03/25 10:05:21;;;;;;;37.92;20.02;;;;;;;11.81;48.31;101280.22;4924905;29;20032;-84
2022/03/25 10:07:51;;;;;;;37.40;19.75;;;;;;;11.73;47.81;101281.38;4923769;29;20028;-83
2022/03/25 10:10:18;;;;;;;37.60;20.45;;;;;;;11.82;46.23;101285.44;4926564;29;20036;-84
2022/03/25 10:12:47;;;;;;;35.90;17.50;;;;;;;12.25;46.94;101291.66;4925458;29;20131;-85
2022/03/25 10:15:16;;;;;;;34.38;16.48;;;;;;;12.33;46.24;101282.25;4931623;29;20027;-86
2022/03/25 10:17:46;;;;;;;31.92;15.23;;;;;;;12.26;45.77;101290.56;4933718;29;20119;-89
2022/03/25 10:20:11;;;;;;;39.58;16.00;;;;;;;12.29;46.13;101282.97;4930948;29;20059;-86
2022/03/25 10:22:37;;;;;;;27.88;14.98;;;;;;;12.39;46.49;101283.19;4917496;29;20526;-87
2022/03/25 10:25:09;;;;;;;35.67;15.90;;;;;;;12.51;46.62;101291.38;4930916;29;20043;-85
2022/03/25 10:27:34;;;;;;;35.92;15.57;;;;;;;12.64;46.37;101273.88;4926665;29;20860;-86
2022/03/25 10:30:01;;;;;;;29.05;15.27;;;;;;;12.75;46.52;101282.31;4939067;29;20433;-85
2022/03/25 10:32:26;;;;;;;27.73;14.63;;;;;;;12.60;46.57;101279.00;4937298;29;20035;-89
2022/03/25 10:35:08;;;;;;;28.55;15.77;;;;;;;12.69;47.02;101281.38;4937622;29;20434;-85
2022/03/25 10:37:35;;;;;;;24.95;12.27;;;;;;;12.73;47.00;101274.34;4944266;29;20035;-88
2022/03/25 10:40:03;;;;;;;31.33;16.63;;;;;;;12.77;46.74;101282.91;4943517;29;20065;-85
2022/03/25 10:42:28;;;;;;;30.23;13.88;;;;;;;12.95;45.52;101274.50;4925100;29;20502;-86
2022/03/25 10:47:37;;;;;;;35.58;15.57;;;;;;;13.19;45.12;101274.41;4920975;29;20183;-86
2022/03/25 10:50:13;;;;;;;50.57;15.93;;;;;;;13.15;45.03;101272.41;4923912;29;20137;-87
2022/03/25 10:52:38;;;;;;;35.50;15.35;;;;;;;13.24;45.82;101270.09;4928620;29;20290;-88
2022/03/25 10:55:19;;;;;;;38.40;17.27;;;;;;;13.38;45.42;101260.47;4924432;29;20365;-85
2022/03/25 10:57:55;;;;;;;26.80;15.07;;;;;;;13.53;45.36;101261.81;4924889;29;20042;-86
2022/03/25 11:00:25;;;;;;;24.98;13.70;;;;;;;13.65;45.66;101270.84;4922839;29;20576;-89
2022/03/25 11:02:52;;;;;;;33.90;17.98;;;;;;;13.50;44.15;101262.34;4932240;29;20019;-86
2022/03/25 11:05:18;;;;;;;30.77;15.88;;;;;;;13.74;44.29;101267.69;4943411;29;20023;-87
2022/03/25 11:07:46;;;;;;;29.63;15.73;;;;;;;13.81;45.25;101271.06;4924024;29;20453;-78
2022/03/25 11:10:13;;;;;;;31.95;18.20;;;;;;;13.87;44.86;101269.25;4940504;29;20035;-90
2022/03/25 11:12:43;;;;;;;34.97;17.10;;;;;;;14.04;44.90;101271.97;4923812;29;20035;-86
2022/03/25 11:15:13;;;;;;;30.00;16.42;;;;;;;14.10;44.81;101267.38;4924007;29;20024;-84
2022/03/25 11:17:41;;;;;;;42.85;17.52;;;;;;;14.09;45.22;101263.00;4923747;29;20306;-84
2022/03/25 11:20:09;;;;;;;43.45;17.08;;;;;;;14.28;44.44;101259.97;4922789;29;20087;-84
2022/03/25 11:22:41;;;;;;;38.97;18.77;;;;;;;14.21;44.54;101255.50;4923498;29;20028;-84
2022/03/25 11:25:10;;;;;;;29.73;16.45;;;;;;;14.35;43.77;101263.34;4923179;29;20455;-85
2022/03/25 11:27:38;;;;;;;35.90;18.52;;;;;;;14.37;43.86;101258.44;4923135;29;20153;-82
2022/03/25 11:30:09;;;;;;;28.50;15.40;;;;;;;14.17;45.64;101264.47;4921643;29;20079;-86
2022/03/25 11:32:46;;;;;;;35.35;18.77;;;;;;;14.24;45.64;101259.63;4922664;29;20044;-82
2022/03/25 11:35:17;;;;;;;28.98;16.40;;;;;;;14.33;45.18;101252.66;4922852;29;20035;-81
2022/03/25 11:37:43;;;;;;;28.38;15.65;;;;;;;14.36;45.05;101252.13;4922069;29;20051;-81